createdAt,value
2018-06-03T00:02:01.320Z,22.70
2018-06-03T00:04:28.788Z,23.20
2018-06-03T00:06:56.279Z,21.77
2018-06-03T00:09:24.510Z,26.60
2018-06-03T00:11:51.968Z,21.83
2018-06-03T00:14:19.424Z,20.10
2018-06-03T00:16:46.896Z,23.03
2018-06-03T00:19:14.356Z,20.73
2018-06-03T00:21:42.641Z,22.17
2018-06-03T00:24:10.881Z,19.40
2018-06-03T00:26:38.364Z,20.37
2018-06-03T00:29:05.823Z,21.93
2018-06-03T00:31:33.299Z,19.77
2018-06-03T00:34:01.529Z,18.73
2018-06-03T00:36:40.868Z,19.93
2018-06-03T00:39:08.328Z,18.63
2018-06-03T00:41:35.799Z,21.77
2018-06-03T00:44:03.256Z,20.80
2018-06-03T00:46:30.725Z,21.00
2018-06-03T00:48:58.186Z,21.50
2018-06-03T00:51:25.632Z,20.40
2018-06-03T00:53:53.089Z,21.43
2018-06-03T00:56:32.423Z,18.37
2018-06-03T00:58:59.888Z,20.23
2018-06-03T01:01:28.125Z,18.07
2018-06-03T01:03:55.589Z,20.43
2018-06-03T01:06:23.124Z,19.00
2018-06-03T01:08:50.668Z,18.97
2018-06-03T01:11:18.888Z,20.10
2018-06-03T01:13:46.368Z,21.67
2018-06-03T01:16:13.828Z,18.80
2018-06-03T01:18:41.292Z,17.43
2018-06-03T01:21:08.773Z,19.67
2018-06-03T01:23:36.232Z,19.93
2018-06-03T01:26:03.688Z,17.67
2018-06-03T01:28:31.920Z,22.47
2018-06-03T01:30:59.495Z,19.80
2018-06-03T01:33:26.957Z,21.73
2018-06-03T01:35:54.420Z,22.03
2018-06-03T01:38:21.876Z,19.00
2018-06-03T01:40:50.113Z,17.47
2018-06-03T01:43:17.576Z,16.50
2018-06-03T01:45:45.044Z,17.80
2018-06-03T01:48:12.511Z,17.67
2018-06-03T01:50:39.976Z,17.47
2018-06-03T01:53:08.208Z,19.47
2018-06-03T01:55:35.663Z,17.73
2018-06-03T01:58:03.142Z,16.50
2018-06-03T02:00:30.614Z,18.07
2018-06-03T02:02:58.080Z,19.23
2018-06-03T02:05:25.533Z,18.67
2018-06-03T02:07:53.000Z,17.37
2018-06-03T02:10:20.465Z,16.07
2018-06-03T02:12:47.934Z,18.07
2018-06-03T02:15:16.163Z,16.87
2018-06-03T02:17:43.624Z,17.50
2018-06-03T02:20:11.096Z,17.13
2018-06-03T02:22:38.565Z,18.97
2018-06-03T02:25:06.788Z,16.87
2018-06-03T02:27:34.273Z,16.57
2018-06-03T02:30:02.502Z,17.67
2018-06-03T02:32:29.993Z,15.37
2018-06-03T02:34:57.460Z,17.43
2018-06-03T02:37:24.937Z,17.40
2018-06-03T02:39:52.409Z,17.87
2018-06-03T02:42:20.640Z,18.20
2018-06-03T02:44:48.112Z,15.70
2018-06-03T02:47:15.564Z,15.07
2018-06-03T02:49:43.031Z,15.40
2018-06-03T02:52:10.488Z,14.97
2018-06-03T02:54:37.956Z,17.73
2018-06-03T02:57:05.421Z,17.40
2018-06-03T02:59:33.719Z,15.57
2018-06-03T03:02:01.187Z,15.90
2018-06-03T03:04:29.413Z,16.17
2018-06-03T03:06:56.885Z,18.17
2018-06-03T03:09:25.140Z,14.37
2018-06-03T03:11:52.601Z,15.70
2018-06-03T03:14:20.064Z,16.77
2018-06-03T03:16:47.743Z,15.93
2018-06-03T03:19:15.206Z,15.87
2018-06-03T03:21:42.660Z,16.10
2018-06-03T03:24:10.143Z,14.83
2018-06-03T03:26:38.364Z,15.13
2018-06-03T03:29:05.823Z,14.60
2018-06-03T03:31:33.285Z,14.77
2018-06-03T03:34:00.744Z,14.57
2018-06-03T03:36:28.200Z,15.40
2018-06-03T03:38:55.671Z,14.00
2018-06-03T03:41:23.144Z,15.10
2018-06-03T03:43:51.384Z,14.10
2018-06-03T03:46:18.852Z,15.50
2018-06-03T03:48:46.324Z,15.43
2018-06-03T03:51:13.786Z,14.27
2018-06-03T03:53:41.253Z,13.90
2018-06-03T03:56:09.608Z,13.47
2018-06-03T03:58:37.068Z,16.43
2018-06-03T04:01:04.524Z,14.97
2018-06-03T04:03:31.984Z,15.60
2018-06-03T04:05:59.440Z,21.27
2018-06-03T04:08:26.915Z,12.10
2018-06-03T04:10:54.364Z,14.70
2018-06-03T04:13:47.507Z,13.43
2018-06-03T04:16:15.602Z,13.50
2018-06-03T04:18:43.732Z,14.53
2018-06-03T04:21:11.828Z,13.67
2018-06-03T04:23:39.940Z,12.77
2018-06-03T04:26:08.065Z,12.30
2018-06-03T04:28:36.192Z,14.80
2018-06-03T04:31:04.074Z,15.20
2018-06-03T04:33:32.177Z,14.60
2018-06-03T04:36:00.285Z,12.97
2018-06-03T04:38:28.424Z,13.60
2018-06-03T04:40:56.516Z,14.00
2018-06-03T04:43:24.624Z,14.83
2018-06-03T04:45:52.741Z,13.00
2018-06-03T04:48:20.869Z,12.57
2018-06-03T04:50:49.008Z,14.67
2018-06-03T04:53:17.160Z,12.40
2018-06-03T04:55:45.249Z,13.20
2018-06-03T04:58:13.355Z,14.13
2018-06-03T05:00:41.509Z,11.87
2018-06-03T05:05:44.100Z,14.70
2018-06-03T05:08:12.207Z,12.17
2018-06-03T05:10:40.127Z,11.10
2018-06-03T05:13:08.242Z,11.87
2018-06-03T05:15:36.372Z,10.90
2018-06-03T05:18:04.499Z,13.10
2018-06-03T05:20:32.616Z,11.10
2018-06-03T05:23:00.731Z,11.70
2018-06-03T05:25:28.908Z,12.17
2018-06-03T05:27:57.044Z,13.20
2018-06-03T05:30:25.164Z,12.23
2018-06-03T05:32:53.276Z,12.60
2018-06-03T05:35:21.405Z,11.83
2018-06-03T05:37:49.520Z,11.90
2018-06-03T05:40:17.641Z,11.60
2018-06-03T05:42:45.535Z,12.50
2018-06-03T05:45:13.661Z,14.00
2018-06-03T05:47:41.777Z,13.23
2018-06-03T05:50:09.879Z,11.90
2018-06-03T05:52:38.008Z,11.50
2018-06-03T05:55:06.124Z,11.43
2018-06-03T05:57:34.228Z,10.80
2018-06-03T06:00:02.351Z,13.33
2018-06-03T06:02:30.452Z,12.20
2018-06-03T06:04:58.572Z,11.30
2018-06-03T06:07:26.676Z,11.97
2018-06-03T06:09:54.792Z,11.80
2018-06-03T06:12:22.888Z,12.90
2018-06-03T06:14:51.008Z,13.00
2018-06-03T06:17:19.281Z,11.63
2018-06-03T06:19:47.386Z,13.60
2018-06-03T06:22:15.529Z,13.23
2018-06-03T06:24:43.632Z,12.07
2018-06-03T06:27:11.723Z,10.90
2018-06-03T06:29:39.626Z,11.20
2018-06-03T06:32:07.740Z,11.80
2018-06-03T06:34:35.869Z,13.10
2018-06-03T06:37:03.965Z,11.67
2018-06-03T06:39:32.086Z,12.70
2018-06-03T06:42:02.785Z,12.30
2018-06-03T06:44:31.040Z,11.90
2018-06-03T06:46:59.136Z,12.27
2018-06-03T06:49:27.340Z,14.27
2018-06-03T06:51:55.238Z,13.37
2018-06-03T06:54:23.342Z,12.30
2018-06-03T06:56:51.446Z,13.07
2018-06-03T06:59:19.596Z,13.10
2018-06-03T07:01:47.749Z,13.07
2018-06-03T07:04:15.849Z,13.50
2018-06-03T07:06:43.984Z,13.47
2018-06-03T07:09:12.585Z,13.43
2018-06-03T07:11:40.715Z,14.60
2018-06-03T07:14:08.644Z,11.80
2018-06-03T07:16:36.728Z,14.00
2018-06-03T07:19:04.872Z,13.87
2018-06-03T07:21:33.043Z,13.23
2018-06-03T07:24:01.144Z,14.50
2018-06-03T07:26:29.330Z,15.93
2018-06-03T07:28:57.451Z,13.33
2018-06-03T07:31:25.552Z,13.90
2018-06-03T07:33:53.644Z,14.30
2018-06-03T07:36:21.820Z,14.70
2018-06-03T07:38:49.913Z,15.23
2018-06-03T07:41:17.821Z,15.93
2018-06-03T07:43:45.908Z,14.40
2018-06-03T07:46:14.003Z,14.73
2018-06-03T07:48:42.105Z,15.50
2018-06-03T07:51:09.992Z,15.17
2018-06-03T07:53:38.088Z,16.13
2018-06-03T07:56:06.184Z,15.10
2018-06-03T07:58:34.281Z,15.83
2018-06-03T08:01:02.404Z,15.40
2018-06-03T08:03:30.527Z,16.47
2018-06-03T08:05:58.449Z,17.60
2018-06-03T08:08:26.541Z,17.23
2018-06-03T08:10:54.666Z,16.43
2018-06-03T08:13:22.763Z,16.30
2018-06-03T08:15:50.880Z,18.67
2018-06-03T08:18:18.996Z,16.97
2018-06-03T08:20:47.085Z,18.93
2018-06-03T08:23:15.167Z,16.93
2018-06-03T08:25:43.248Z,17.57
2018-06-03T08:28:11.343Z,17.53
2018-06-03T08:30:39.476Z,18.10
2018-06-03T08:33:07.597Z,20.13
2018-06-03T08:35:35.706Z,18.73
2018-06-03T08:38:03.793Z,17.97
2018-06-03T08:40:31.904Z,34.50
2018-06-03T08:42:59.980Z,44.63
2018-06-03T08:45:28.077Z,47.80
2018-06-03T08:47:56.224Z,37.77
2018-06-03T08:50:24.156Z,43.40
2018-06-03T08:52:52.244Z,44.13
2018-06-03T08:55:20.340Z,49.73
2018-06-03T08:57:48.300Z,44.00
2018-06-03T09:00:16.394Z,46.77
2018-06-03T09:02:44.496Z,51.20
2018-06-03T09:05:12.608Z,52.47
2018-06-03T09:07:40.762Z,46.97
2018-06-03T09:10:08.791Z,49.40
2018-06-03T09:12:36.904Z,45.13
2018-06-03T09:15:05.013Z,56.60
2018-06-03T09:17:33.105Z,41.87
2018-06-03T09:20:01.249Z,39.77
2018-06-03T09:22:29.396Z,46.60
2018-06-03T09:24:57.528Z,41.90
2018-06-03T09:27:25.624Z,47.87
2018-06-03T09:29:53.745Z,46.70
2018-06-03T09:32:21.841Z,53.87
2018-06-03T09:34:49.960Z,49.43
2018-06-03T09:37:18.062Z,48.20
2018-06-03T09:39:46.164Z,49.13
2018-06-03T09:42:14.357Z,48.70
2018-06-03T09:44:42.526Z,44.40
2018-06-03T09:47:10.423Z,44.60
2018-06-03T09:49:38.509Z,42.73
2018-06-03T09:52:06.406Z,45.97
2018-06-03T09:54:34.528Z,41.67
2018-06-03T09:57:02.656Z,43.77
2018-06-03T09:59:31.610Z,44.63
2018-06-03T10:01:59.716Z,37.13
2018-06-03T10:04:27.829Z,33.57
2018-06-03T10:06:55.953Z,35.63
2018-06-03T10:09:24.180Z,36.40
2018-06-03T10:11:52.292Z,37.10
2018-06-03T10:14:20.425Z,35.80
2018-06-03T10:16:48.521Z,31.00
2018-06-03T10:19:16.629Z,33.60
2018-06-03T10:21:44.728Z,36.73
2018-06-03T10:24:12.817Z,33.10
2018-06-03T10:26:40.914Z,34.13
2018-06-03T10:29:09.014Z,26.27
2018-06-03T10:31:37.234Z,28.97
2018-06-03T10:34:05.416Z,35.93
2018-06-03T10:36:35.679Z,29.73
2018-06-03T10:39:05.645Z,33.23
2018-06-03T10:41:36.760Z,33.83
2018-06-03T10:44:04.872Z,29.00
2018-06-03T10:46:32.965Z,32.43
2018-06-03T10:49:01.061Z,33.97
2018-06-03T10:51:29.181Z,26.60
2018-06-03T10:53:57.265Z,28.30
2018-06-03T10:56:25.337Z,26.67
2018-06-03T10:58:53.439Z,27.90
2018-06-03T11:01:21.523Z,23.83
2018-06-03T11:03:49.612Z,22.93
2018-06-03T11:06:17.725Z,31.13
2018-06-03T11:08:45.813Z,24.60
2018-06-03T11:11:13.924Z,27.13
2018-06-03T11:13:42.051Z,22.70
2018-06-03T11:16:10.202Z,22.53
2018-06-03T11:18:38.278Z,26.27
2018-06-03T11:21:06.464Z,23.90
2018-06-03T11:23:34.753Z,27.33
2018-06-03T11:26:04.894Z,24.43
2018-06-03T11:28:33.029Z,20.80
2018-06-03T11:31:01.156Z,21.80
2018-06-03T11:33:29.273Z,21.57
2018-06-03T11:35:57.397Z,27.53
2018-06-03T11:38:25.516Z,24.73
2018-06-03T11:40:53.654Z,24.70
2018-06-03T11:43:21.813Z,20.83
2018-06-03T11:45:49.908Z,21.03
2018-06-03T11:48:18.040Z,22.43
2018-06-03T11:50:46.180Z,25.53
2018-06-03T11:53:15.324Z,25.33
2018-06-03T11:55:43.450Z,18.97
2018-06-03T11:58:50.956Z,19.40
2018-06-03T12:01:19.197Z,24.70
2018-06-03T12:03:47.313Z,22.50
2018-06-03T12:06:15.405Z,18.40
2018-06-03T12:08:43.512Z,27.33
2018-06-03T12:11:11.612Z,31.77
2018-06-03T12:13:39.708Z,44.60
2018-06-03T12:16:07.814Z,20.50
2018-06-03T12:18:35.904Z,22.33
2018-06-03T12:21:04.016Z,25.07
2018-06-03T12:23:32.175Z,13.60
2018-06-03T12:26:00.276Z,14.17
2018-06-03T12:28:28.460Z,13.23
2018-06-03T12:30:56.518Z,19.80
2018-06-03T12:33:24.620Z,19.30
2018-06-03T12:35:52.742Z,24.07
2018-06-03T12:38:20.880Z,22.20
2018-06-03T12:40:48.988Z,22.53
2018-06-03T12:43:17.108Z,18.20
2018-06-03T12:45:45.240Z,21.20
2018-06-03T12:48:13.348Z,15.17
2018-06-03T12:50:41.476Z,19.63
2018-06-03T12:53:09.598Z,14.90
2018-06-03T12:55:37.724Z,16.63
2018-06-03T12:58:05.854Z,13.83
2018-06-03T13:00:33.984Z,18.60
2018-06-03T13:03:02.130Z,12.87
2018-06-03T13:05:30.625Z,14.37
2018-06-03T13:07:58.747Z,14.40
2018-06-03T13:10:28.116Z,13.80
2018-06-03T13:12:56.195Z,16.83
2018-06-03T13:15:26.241Z,15.23
2018-06-03T13:17:54.144Z,15.53
2018-06-03T13:20:22.290Z,16.97
2018-06-03T13:22:50.207Z,16.87
2018-06-03T13:25:18.329Z,15.50
2018-06-03T13:27:46.446Z,15.00
2018-06-03T13:30:14.572Z,17.43
2018-06-03T13:32:43.538Z,15.40
2018-06-03T13:35:11.696Z,16.73
2018-06-03T13:37:39.933Z,18.23
2018-06-03T13:40:07.839Z,15.27
2018-06-03T13:42:35.968Z,15.63
2018-06-03T13:45:03.879Z,17.90
2018-06-03T13:47:32.001Z,18.03
2018-06-03T13:50:00.124Z,15.33
2018-06-03T13:52:28.244Z,19.00
2018-06-03T13:54:56.384Z,18.53
2018-06-03T13:57:24.511Z,15.00
2018-06-03T13:59:52.626Z,18.70
2018-06-03T14:02:20.721Z,15.50
2018-06-03T14:04:48.859Z,19.67
2018-06-03T14:07:16.961Z,13.63
2018-06-03T14:09:45.100Z,13.00
2018-06-03T14:12:13.224Z,11.23
2018-06-03T14:14:41.340Z,11.77
2018-06-03T14:17:09.476Z,11.67
2018-06-03T14:19:37.749Z,9.17
2018-06-03T14:22:05.877Z,11.33
2018-06-03T14:24:34.088Z,10.10
2018-06-03T14:27:02.181Z,9.43
2018-06-03T14:29:30.297Z,8.70
2018-06-03T14:31:58.471Z,14.10
2018-06-03T14:34:26.525Z,11.77
2018-06-03T14:36:54.659Z,11.20
2018-06-03T14:39:22.784Z,12.87
2018-06-03T14:41:50.908Z,9.30
2018-06-03T14:44:18.998Z,11.73
2018-06-03T14:46:46.879Z,9.17
2018-06-03T14:49:14.971Z,11.13
2018-06-03T14:51:43.097Z,10.40
2018-06-03T14:54:11.265Z,12.23
2018-06-03T14:56:39.404Z,10.60
2018-06-03T14:59:07.468Z,12.20
2018-06-03T15:01:35.741Z,9.97
2018-06-03T15:04:03.816Z,9.40
2018-06-03T15:06:31.931Z,13.03
2018-06-03T15:09:00.025Z,9.53
2018-06-03T15:11:28.189Z,14.50
2018-06-03T15:13:56.293Z,15.63
2018-06-03T15:16:24.393Z,14.53
2018-06-03T15:18:52.565Z,14.13
2018-06-03T15:21:20.500Z,9.17
2018-06-03T15:23:48.620Z,11.17
2018-06-03T15:26:16.915Z,8.47
2018-06-03T15:28:45.001Z,11.07
2018-06-03T15:31:13.165Z,9.43
2018-06-03T15:33:41.290Z,10.37
2018-06-03T15:36:09.409Z,8.33
2018-06-03T15:38:37.540Z,11.80
2018-06-03T15:41:05.701Z,11.60
2018-06-03T15:43:33.833Z,10.30
2018-06-03T15:46:01.970Z,10.53
2018-06-03T15:48:30.088Z,7.80
2018-06-03T15:50:59.032Z,7.77
2018-06-03T15:53:27.151Z,10.20
2018-06-03T15:55:55.542Z,9.90
2018-06-03T15:58:23.732Z,9.70
2018-06-03T16:00:51.760Z,8.17
2018-06-03T16:03:20.181Z,12.10
2018-06-03T16:05:48.499Z,10.50
2018-06-03T16:08:16.701Z,8.87
2018-06-03T16:10:44.927Z,7.90
2018-06-03T16:13:13.128Z,8.10
2018-06-03T16:15:41.249Z,7.07
2018-06-03T16:18:09.396Z,8.60
2018-06-03T16:20:37.516Z,8.50
2018-06-03T16:23:05.431Z,7.40
2018-06-03T16:25:33.596Z,7.73
2018-06-03T16:28:01.789Z,8.80
2018-06-03T16:30:29.996Z,8.23
2018-06-03T16:32:58.064Z,8.20
2018-06-03T16:35:25.963Z,9.83
2018-06-03T16:37:54.076Z,9.90
2018-06-03T16:40:22.203Z,6.93
2018-06-03T16:42:50.056Z,10.90
2018-06-03T16:45:18.194Z,8.27
2018-06-03T16:47:46.277Z,19.03
2018-06-03T16:50:14.374Z,12.67
2018-06-03T16:52:42.469Z,9.67
2018-06-03T16:55:10.580Z,11.50
2018-06-03T16:57:38.701Z,9.30
2018-06-03T17:00:06.843Z,11.30
2018-06-03T17:02:34.760Z,10.43
2018-06-03T17:05:02.897Z,12.33
2018-06-03T17:07:31.009Z,9.43
2018-06-03T17:09:59.089Z,8.63
2018-06-03T17:12:27.184Z,8.30
2018-06-03T17:14:55.293Z,11.03
2018-06-03T17:17:23.431Z,9.93
2018-06-03T17:19:51.555Z,7.43
2018-06-03T17:22:19.690Z,8.40
2018-06-03T17:24:47.819Z,8.13
2018-06-03T17:27:16.114Z,7.90
2018-06-03T17:29:44.204Z,12.77
2018-06-03T17:32:12.322Z,9.10
2018-06-03T17:34:40.474Z,8.40
2018-06-03T17:37:08.590Z,8.93
2018-06-03T17:39:36.688Z,7.77
2018-06-03T17:42:04.800Z,9.70
2018-06-03T17:44:32.906Z,8.63
2018-06-03T17:47:01.071Z,8.63
2018-06-03T17:49:29.137Z,11.53
2018-06-03T17:51:57.248Z,8.20
2018-06-03T17:54:25.349Z,7.37
2018-06-03T17:56:53.500Z,10.60
2018-06-03T17:59:21.616Z,10.30
2018-06-03T18:01:49.712Z,9.43
2018-06-03T18:04:17.881Z,16.57
2018-06-03T18:06:46.124Z,17.47
2018-06-03T18:09:15.497Z,18.67
2018-06-03T18:11:43.665Z,17.03
2018-06-03T18:14:12.157Z,16.50
2018-06-03T18:16:40.183Z,18.30
2018-06-03T18:19:08.494Z,17.90
2018-06-03T18:21:36.923Z,20.77
2018-06-03T18:24:05.544Z,19.07
2018-06-03T18:26:33.629Z,21.43
2018-06-03T18:29:01.579Z,22.50
2018-06-03T18:31:29.734Z,24.87
2018-06-03T18:33:57.864Z,26.60
2018-06-03T18:36:26.047Z,25.40
2018-06-03T18:38:54.190Z,24.77
2018-06-03T18:41:22.292Z,23.83
2018-06-03T18:43:52.559Z,29.30
2018-06-03T18:46:20.698Z,27.53
2018-06-03T18:48:48.957Z,28.67
2018-06-03T18:51:17.166Z,24.83
2018-06-03T18:53:46.845Z,28.53
2018-06-03T18:56:15.557Z,23.47
2018-06-03T18:58:43.757Z,24.60
2018-06-03T19:01:11.930Z,25.53
2018-06-03T19:03:43.215Z,27.20
2018-06-03T19:06:12.052Z,19.20
2018-06-03T19:08:43.267Z,24.30
2018-06-03T19:11:11.493Z,21.30
2018-06-03T19:13:40.110Z,25.33
2018-06-03T19:16:10.201Z,24.10
2018-06-03T19:18:38.352Z,24.13
2018-06-03T19:21:06.782Z,26.93
2018-06-03T19:23:35.059Z,24.13
2018-06-03T19:26:03.262Z,23.97
2018-06-03T19:28:34.133Z,24.90
2018-06-03T19:31:02.321Z,26.37
2018-06-03T19:33:30.474Z,23.93
2018-06-03T19:35:58.584Z,23.50
2018-06-03T19:38:26.960Z,27.77
2018-06-03T19:40:55.590Z,27.53
2018-06-03T19:43:28.166Z,25.90
2018-06-03T19:45:56.815Z,25.37
2018-06-03T19:48:25.350Z,27.23
2018-06-03T19:50:54.034Z,26.90
2018-06-03T19:53:22.490Z,22.67
2018-06-03T19:55:55.084Z,19.40
2018-06-03T19:58:23.211Z,17.43
2018-06-03T20:00:51.337Z,19.73
2018-06-03T20:03:19.706Z,16.47
2018-06-03T20:05:47.897Z,17.97
2018-06-03T20:08:16.150Z,17.30
2018-06-03T20:10:44.330Z,16.53
2018-06-03T20:13:15.616Z,22.03
2018-06-03T20:15:45.292Z,13.73
2018-06-03T20:18:13.402Z,14.13
2018-06-03T20:20:41.600Z,12.27
2018-06-03T20:23:09.831Z,16.23
2018-06-03T20:25:38.005Z,17.83
2018-06-03T20:28:06.142Z,19.33
2018-06-03T20:30:34.295Z,18.00
2018-06-03T20:33:02.394Z,21.83
2018-06-03T20:35:30.649Z,19.50
2018-06-03T20:37:58.984Z,23.30
2018-06-03T20:40:27.092Z,16.57
2018-06-03T20:42:55.192Z,16.20
2018-06-03T20:45:23.293Z,21.63
2018-06-03T20:47:51.401Z,17.27
2018-06-03T20:50:19.532Z,20.60
2018-06-03T20:52:47.635Z,17.70
2018-06-03T20:55:15.867Z,19.40
2018-06-03T20:57:43.742Z,16.87
2018-06-03T21:00:11.846Z,14.50
2018-06-03T21:02:39.945Z,13.00
2018-06-03T21:05:08.044Z,16.73
2018-06-03T21:07:36.130Z,17.13
2018-06-03T21:10:04.240Z,18.60
2018-06-03T21:12:32.356Z,16.87
2018-06-03T21:15:00.456Z,21.30
2018-06-03T21:17:28.548Z,26.33
2018-06-03T21:19:56.670Z,25.00
2018-06-03T21:22:24.772Z,16.80
2018-06-03T21:24:52.904Z,15.73
2018-06-03T21:27:20.990Z,17.00
2018-06-03T21:29:49.093Z,17.30
2018-06-03T21:32:17.245Z,16.23
2018-06-03T21:34:45.341Z,26.33
2018-06-03T21:37:13.461Z,23.77
2018-06-03T21:39:41.556Z,22.40
2018-06-03T21:42:09.653Z,22.67
2018-06-03T21:44:37.776Z,16.37
2018-06-03T21:47:06.080Z,19.83
2018-06-03T21:49:34.281Z,19.30
2018-06-03T21:52:02.372Z,18.13
2018-06-03T21:54:30.472Z,20.47
2018-06-03T21:56:58.375Z,18.60
2018-06-03T21:59:26.476Z,15.13
2018-06-03T22:01:54.832Z,15.60
2018-06-03T22:04:22.948Z,14.53
2018-06-03T22:06:51.064Z,81.80
2018-06-03T22:09:19.231Z,25.17
2018-06-03T22:11:47.031Z,25.67
2018-06-03T22:14:15.131Z,22.10
2018-06-03T22:16:43.240Z,21.63
2018-06-03T22:19:11.400Z,17.20
2018-06-03T22:21:39.516Z,19.27
2018-06-03T22:24:07.644Z,18.80
2018-06-03T22:26:35.764Z,13.23
2018-06-03T22:29:03.929Z,17.17
2018-06-03T22:31:31.816Z,13.37
2018-06-03T22:33:59.928Z,17.00
2018-06-03T22:36:28.143Z,15.10
2018-06-03T22:38:56.023Z,16.63
2018-06-03T22:41:24.240Z,15.70
2018-06-03T22:43:52.360Z,14.17
2018-06-03T22:46:20.497Z,15.07
2018-06-03T22:48:48.603Z,14.20
2018-06-03T22:51:16.748Z,12.30
2018-06-03T22:53:44.848Z,11.00
2018-06-03T22:56:12.740Z,13.57
2018-06-03T22:58:41.095Z,20.97
2018-06-03T23:01:09.272Z,16.70
2018-06-03T23:03:37.148Z,15.80
2018-06-03T23:06:05.278Z,22.20
2018-06-03T23:08:33.386Z,17.20
2018-06-03T23:11:01.478Z,19.83
2018-06-03T23:13:29.572Z,16.87
2018-06-03T23:15:57.689Z,14.33
2018-06-03T23:18:25.779Z,13.97
2018-06-03T23:20:53.664Z,19.83
2018-06-03T23:23:21.776Z,14.40
2018-06-03T23:25:49.902Z,14.60
2018-06-03T23:28:18.000Z,13.90
2018-06-03T23:30:46.125Z,18.23
2018-06-03T23:33:14.216Z,26.47
2018-06-03T23:35:42.131Z,26.03
2018-06-03T23:38:10.248Z,25.33
2018-06-03T23:40:38.361Z,23.23
2018-06-03T23:43:06.483Z,35.57
2018-06-03T23:45:34.601Z,27.73
2018-06-03T23:48:02.725Z,25.53
2018-06-03T23:50:30.837Z,24.37
2018-06-03T23:52:58.960Z,21.33
2018-06-03T23:55:27.068Z,24.60
2018-06-03T23:57:55.196Z,21.20
